Thursday, July 19, 2018, 5:24 AM GMT
Back to Local

CWEW, L'Assomption

Location: , , Canada Lat: 45.817
Local Time: 5:24 AM GMT ( 5:24 GMT) Lon: -73.433
Time Zone: GMT Elev: 68 ft

Show me the last for .
Show Coded

Time T Td Feel RH Dir Speed Gust Alt SLP Vis Weather Sky Remarks
2018-07-19 05:00 55 50 - 81 230° 1 - - 30.03 0 None
2018-07-19 04:00 58 49 - 71 280° 2 - - 30.02 0 None
2018-07-19 03:00 61 48 - 61 290° 3 - - 30.02 0 None
2018-07-19 02:00 63 49 - 59 310° 3 - - 30.01 0 None
2018-07-19 01:00 67 48 - 51 300° 3 - - 29.99 0 1-hr Precip Total: 0.02"
2018-07-19 00:00 72 45 - 37 300° 5 - - 29.97 0 None
2018-07-18 23:00 75 43 - 32 290° 6 - - 29.96 0 None
2018-07-18 22:00 76 42 - 30 300° 6 - - 29.96 0 None
2018-07-18 21:00 76 40 - 28 310° 6 - - 29.96 0 None
2018-07-18 20:00 75 42 - 29 320° 7 - - 29.96 0 None
2018-07-18 19:00 74 40 - 28 300° 7 - - 29.97 0 None
2018-07-18 18:00 73 38 - 28 310° 9 - - 29.98 0 None
2018-07-18 17:00 71 42 - 34 290° 7 - - 29.99 0 None
2018-07-18 16:00 69 43 - 39 310° 7 - - 30.00 0 None
2018-07-18 15:00 67 42 - 40 300° 8 17 - 30.01 0 None
2018-07-18 14:00 65 45 - 48 290° 8 - - 30.01 0 None
2018-07-18 13:00 63 46 - 53 300° 8 - - 30.01 0 None
2018-07-18 12:00 62 49 - 63 290° 7 - - 30.01 0 None
2018-07-18 11:00 58 47 - 67 290° 5 - - 30.00 0 None
2018-07-18 10:00 56 47 - 71 290° 5 - - 29.97 0 None
2018-07-18 09:00 56 48 - 73 310° 5 - - 29.94 0 None
2018-07-18 08:00 57 49 - 73 290° 5 - - 29.93 0 None
2018-07-18 07:00 59 49 - 69 320° 5 - - 29.91 0 None
2018-07-18 06:00 61 50 - 67 320° 7 - - 29.90 0 None

Support USWX by starting your Amazon purchase here.